Time;durP1;ratioP1;P1;durP2;ratioP2;P2;SDS_P1;SDS_P2;PMS_P1;PMS_P2;Temp;Humidity;BMP_temperature;BMP_pressure;BME280_temperature;BME280_humidity;BME280_pressure;Samples;Min_cycle;Max_cycle;Signal;HPM_P1;HPM_P2
2023/04/13 00:00:22;;;;;;;5.63;0.82;;;10.20;54.30;;;;;;4945153;28;20062;-44
2023/04/13 00:02:54;;;;;;;3.88;0.68;;;10.20;54.30;;;;;;4945090;28;20412;-44
2023/04/13 00:05:23;;;;;;;2.28;0.60;;;10.20;54.30;;;;;;4944546;28;20511;-45
2023/04/13 00:07:52;;;;;;;1.98;0.40;;;10.20;54.30;;;;;;4945233;28;20500;-44
2023/04/13 00:10:19;;;;;;;4.75;0.70;;;10.20;54.30;;;;;;4945723;28;20062;-42
2023/04/13 00:12:47;;;;;;;8.02;0.90;;;10.20;54.30;;;;;;4944936;28;20051;-45
2023/04/13 00:15:16;;;;;;;4.57;0.80;;;10.20;54.30;;;;;;4944128;28;20051;-47
2023/04/13 00:17:44;;;;;;;3.13;0.55;;;10.20;54.30;;;;;;4943605;28;20420;-43
2023/04/13 00:20:14;;;;;;;1.50;0.50;;;10.20;54.30;;;;;;4943757;28;20059;-43
2023/04/13 00:22:42;;;;;;;3.05;0.70;;;10.20;54.30;;;;;;4945862;28;20066;-45
2023/04/13 00:25:11;;;;;;;4.57;0.80;;;10.20;54.10;;;;;;4944805;28;20043;-45
2023/04/13 00:27:39;;;;;;;3.45;0.52;;;10.20;54.00;;;;;;4945449;28;20054;-43
2023/04/13 00:30:08;;;;;;;3.03;0.80;;;10.20;54.00;;;;;;4944556;28;20054;-43
2023/04/13 00:32:37;;;;;;;2.38;0.73;;;10.20;54.00;;;;;;4943774;28;20082;-45
2023/04/13 00:35:05;;;;;;;1.73;0.70;;;10.20;54.00;;;;;;4943634;28;20419;-41
2023/04/13 00:37:33;;;;;;;2.83;0.77;;;10.20;54.10;;;;;;4944210;28;20245;-46
2023/04/13 00:40:00;;;;;;;3.50;0.90;;;10.30;54.00;;;;;;4945023;28;20051;-45
2023/04/13 00:42:28;;;;;;;2.92;0.70;;;10.30;53.90;;;;;;4944602;28;20063;-44
2023/04/13 00:44:55;;;;;;;4.28;0.90;;;10.30;53.90;;;;;;4943902;28;20051;-43
2023/04/13 00:47:27;;;;;;;1.92;0.70;;;10.30;53.80;;;;;;4943800;28;20051;-46
2023/04/13 00:49:57;;;;;;;2.47;0.65;;;10.40;53.80;;;;;;4943235;28;20423;-42
2023/04/13 00:52:24;;;;;;;3.60;0.75;;;10.40;53.70;;;;;;4944888;28;20054;-43
2023/04/13 00:54:55;;;;;;;4.45;0.63;;;10.40;53.60;;;;;;4946261;28;20447;-44
2023/04/13 00:57:24;;;;;;;3.72;0.82;;;10.40;53.50;;;;;;4944463;28;20500;-42
2023/04/13 00:59:51;;;;;;;3.10;0.93;;;10.40;53.50;;;;;;4944239;28;20500;-42
2023/04/13 01:02:33;;;;;;;2.72;0.70;;;10.50;53.10;;;;;;5276554;23;20054;-92
2023/04/13 01:08:31;;;;;;;1.52;0.55;;;10.50;53.10;;;;;;4962175;28;20138;-93
2023/04/13 01:11:11;;;;;;;2.70;0.73;;;10.60;53.20;;;;;;4972953;28;20057;-91
2023/04/13 01:13:54;;;;;;;2.03;0.50;;;10.60;52.90;;;;;;4972078;28;20061;-93
2023/04/13 01:16:27;;;;;;;5.63;0.93;;;10.60;52.80;;;;;;4969375;28;20054;-91
2023/04/13 01:18:59;;;;;;;6.20;0.87;;;10.60;52.70;;;;;;4968543;28;20061;-92
2023/04/13 01:21:53;;;;;;;3.45;0.70;;;10.70;52.70;;;;;;4967812;28;20054;-92
2023/04/13 01:24:56;;;;;;;1.93;0.70;;;10.70;52.70;;;;;;4968898;28;20065;-91
2023/04/13 01:27:41;;;;;;;5.57;0.60;;;10.70;52.60;;;;;;4973322;28;20069;-92
2023/04/13 01:30:10;;;;;;;1.80;0.45;;;10.80;52.70;;;;;;4975370;28;20053;-94
2023/04/13 01:32:39;;;;;;;4.55;0.70;;;10.80;52.60;;;;;;4973993;28;20059;-92
2023/04/13 01:35:10;;;;;;;4.22;0.70;;;10.80;52.50;;;;;;4970673;28;20050;-93
2023/04/13 01:37:41;;;;;;;2.33;0.60;;;10.80;52.50;;;;;;4974167;28;20058;-91
2023/04/13 01:40:11;;;;;;;2.70;0.57;;;10.80;52.50;;;;;;4976518;28;20046;-93
2023/04/13 01:42:41;;;;;;;1.30;0.60;;;10.80;52.30;;;;;;4974253;28;20126;-90
2023/04/13 01:45:14;;;;;;;2.15;0.60;;;10.70;52.20;;;;;;4976923;28;20058;-92
2023/04/13 01:47:49;;;;;;;5.13;0.60;;;10.80;52.30;;;;;;4978930;28;20058;-92
2023/04/13 01:50:27;;;;;;;2.03;0.47;;;10.80;52.40;;;;;;4977568;28;20054;-93
2023/04/13 01:52:58;;;;;;;5.53;0.38;;;10.80;52.30;;;;;;4978416;28;20058;-93
2023/04/13 01:55:32;;;;;;;1.63;0.55;;;10.80;52.30;;;;;;4994603;28;20054;-92
2023/04/13 01:58:03;;;;;;;2.60;0.50;;;10.80;52.20;;;;;;5002478;28;20042;-92
2023/04/13 02:00:35;;;;;;;3.50;0.60;;;10.80;52.20;;;;;;5006050;28;20034;-92
2023/04/13 02:03:05;;;;;;;2.85;0.50;;;10.80;52.20;;;;;;5004637;28;20062;-92
2023/04/13 02:05:35;;;;;;;2.42;0.60;;;10.80;52.30;;;;;;5004090;28;20046;-92
2023/04/13 02:08:04;;;;;;;1.90;0.50;;;10.70;52.20;;;;;;5002809;28;20046;-90
2023/04/13 02:10:33;;;;;;;3.40;0.80;;;10.80;52.20;;;;;;4975002;28;20050;-91
2023/04/13 02:13:02;;;;;;;2.78;0.60;;;10.70;52.10;;;;;;4975199;28;20050;-89
2023/04/13 02:15:31;;;;;;;4.72;0.55;;;10.70;52.10;;;;;;4981033;28;20057;-89
2023/04/13 02:17:58;;;;;;;1.20;0.60;;;10.70;52.10;;;;;;4979825;28;20056;-91
2023/04/13 02:20:25;;;;;;;2.35;0.47;;;10.70;52.00;;;;;;4980865;28;20066;-88
2023/04/13 02:22:53;;;;;;;6.22;0.73;;;10.70;52.00;;;;;;4985526;28;20057;-96
2023/04/13 02:25:21;;;;;;;3.58;0.65;;;10.80;52.10;;;;;;4986163;28;20057;-95
2023/04/13 02:27:50;;;;;;;0.90;0.30;;;10.80;52.20;;;;;;4983401;28;20046;-94
2023/04/13 02:32:55;;;;;;;1.88;0.70;;;10.80;52.10;;;;;;4945530;28;20055;-45
2023/04/13 02:35:24;;;;;;;2.92;0.70;;;10.80;52.00;;;;;;4946525;28;20054;-47
2023/04/13 02:37:52;;;;;;;2.53;0.63;;;10.80;52.00;;;;;;4948793;28;21079;-45
2023/04/13 02:40:19;;;;;;;2.72;0.50;;;10.80;52.00;;;;;;4947120;28;20062;-43
2023/04/13 02:42:47;;;;;;;2.72;0.63;;;10.80;52.00;;;;;;4946468;28;20059;-43
2023/04/13 02:45:16;;;;;;;1.90;0.50;;;10.80;52.00;;;;;;4945956;28;20055;-49
2023/04/13 02:47:44;;;;;;;1.58;0.50;;;10.80;52.00;;;;;;4946284;28;20067;-43
2023/04/13 02:50:13;;;;;;;1.58;0.35;;;10.80;52.00;;;;;;4945745;28;20059;-43
2023/04/13 02:52:40;;;;;;;2.92;0.68;;;10.80;52.00;;;;;;4947899;28;20078;-45
2023/04/13 02:55:09;;;;;;;6.13;1.02;;;10.80;52.00;;;;;;4946228;28;20718;-43
2023/04/13 02:57:36;;;;;;;4.35;0.50;;;10.80;52.00;;;;;;4945258;28;20395;-45
2023/04/13 03:00:08;;;;;;;2.85;0.50;;;10.80;51.90;;;;;;4945605;28;20061;-44
2023/04/13 03:02:36;;;;;;;1.98;0.50;;;10.80;51.90;;;;;;4946482;28;20611;-42
2023/04/13 03:05:04;;;;;;;2.55;0.50;;;10.80;51.90;;;;;;4945195;28;20055;-45
2023/04/13 03:07:33;;;;;;;5.28;0.60;;;10.80;51.90;;;;;;4946858;28;20058;-44
2023/04/13 03:10:03;;;;;;;2.90;0.73;;;10.80;51.90;;;;;;4939864;28;20055;-46
2023/04/13 03:12:30;;;;;;;6.85;0.93;;;10.80;51.90;;;;;;4964133;28;20507;-46
2023/04/13 03:15:01;;;;;;;2.58;0.57;;;10.80;52.00;;;;;;4965645;28;20071;-46
2023/04/13 03:17:30;;;;;;;2.72;0.63;;;10.80;52.00;;;;;;4964272;28;20058;-44
2023/04/13 03:19:57;;;;;;;4.03;0.90;;;10.80;52.00;;;;;;4963580;28;20054;-45
2023/04/13 03:22:29;;;;;;;2.70;0.60;;;10.80;51.90;;;;;;4964981;28;20051;-57
2023/04/13 03:24:57;;;;;;;2.50;0.90;;;10.80;51.90;;;;;;4965242;28;20491;-45
2023/04/13 03:27:25;;;;;;;3.25;0.63;;;10.80;51.90;;;;;;4966213;28;20494;-44
2023/04/13 03:29:52;;;;;;;3.53;0.85;;;10.80;52.00;;;;;;4965355;28;20061;-45
2023/04/13 03:32:20;;;;;;;5.38;0.88;;;10.80;52.00;;;;;;4964923;28;20613;-44
2023/04/13 03:34:47;;;;;;;3.28;0.77;;;10.90;52.10;;;;;;4960546;28;20403;-48
2023/04/13 03:37:14;;;;;;;4.43;0.80;;;10.90;52.00;;;;;;4963586;28;20061;-44
2023/04/13 03:39:42;;;;;;;1.70;0.45;;;10.80;52.00;;;;;;4964820;28;20055;-44
2023/04/13 03:42:10;;;;;;;3.72;0.80;;;10.90;52.10;;;;;;4963712;28;20050;-52
2023/04/13 03:44:37;;;;;;;2.17;0.80;;;10.90;52.10;;;;;;4964525;28;20055;-44
2023/04/13 03:47:08;;;;;;;3.72;1.02;;;10.90;52.10;;;;;;4962323;28;20051;-44
2023/04/13 03:49:35;;;;;;;4.90;1.00;;;10.90;52.10;;;;;;4961409;28;20054;-46
2023/04/13 03:52:02;;;;;;;5.65;0.80;;;10.90;52.10;;;;;;4963297;28;20061;-46
2023/04/13 03:54:30;;;;;;;4.97;1.00;;;10.90;52.10;;;;;;4962529;28;20521;-43
2023/04/13 03:56:57;;;;;;;5.47;0.90;;;10.90;52.00;;;;;;4963489;28;20050;-43
2023/04/13 03:59:26;;;;;;;6.85;0.95;;;11.00;52.10;;;;;;4964051;28;20471;-44
2023/04/13 04:01:53;;;;;;;3.30;0.80;;;11.00;52.10;;;;;;4965071;28;20654;-45
2023/04/13 04:04:20;;;;;;;5.28;0.98;;;10.90;52.00;;;;;;4962281;28;20058;-45
2023/04/13 04:06:48;;;;;;;5.57;1.10;;;11.00;52.00;;;;;;4962961;28;20066;-43
2023/04/13 04:09:15;;;;;;;4.93;0.95;;;11.00;52.00;;;;;;4961533;28;20533;-46
2023/04/13 04:11:43;;;;;;;8.02;1.15;;;11.00;52.00;;;;;;4963069;28;20070;-44
2023/04/13 04:14:10;;;;;;;3.08;0.80;;;11.00;52.00;;;;;;4963399;28;20050;-45
2023/04/13 04:16:39;;;;;;;14.77;1.40;;;11.00;52.00;;;;;;4964323;28;20058;-46
2023/04/13 04:19:06;;;;;;;4.50;0.90;;;11.00;52.00;;;;;;4960910;28;20061;-46
2023/04/13 04:21:34;;;;;;;4.18;0.75;;;11.00;52.00;;;;;;4963425;28;20388;-44
2023/04/13 04:24:04;;;;;;;2.47;0.73;;;11.00;52.00;;;;;;4964476;28;20059;-46
2023/04/13 04:26:32;;;;;;;5.63;1.05;;;11.00;52.00;;;;;;4965007;28;20063;-43
2023/04/13 04:29:02;;;;;;;6.55;1.40;;;11.00;52.00;;;;;;4963507;28;20050;-43
2023/04/13 04:31:33;;;;;;;4.68;0.80;;;11.00;51.90;;;;;;4962258;28;20058;-43
2023/04/13 04:34:02;;;;;;;6.18;1.20;;;11.00;51.90;;;;;;4962659;28;20062;-44
2023/04/13 04:36:29;;;;;;;5.75;1.02;;;11.00;51.90;;;;;;4964686;28;20422;-47
2023/04/13 04:39:00;;;;;;;7.13;1.00;;;11.10;51.90;;;;;;4965190;28;20054;-43
2023/04/13 04:41:29;;;;;;;5.15;0.90;;;11.10;51.90;;;;;;4962837;28;20081;-44
2023/04/13 04:44:01;;;;;;;7.00;1.20;;;11.10;51.90;;;;;;4962722;28;20055;-43
2023/04/13 04:46:28;;;;;;;3.60;0.80;;;11.10;51.90;;;;;;4964256;28;20069;-43
2023/04/13 04:48:59;;;;;;;5.97;1.10;;;11.10;52.00;;;;;;4961273;28;20054;-44
2023/04/13 04:51:28;;;;;;;5.05;1.10;;;11.10;52.00;;;;;;4962941;28;20402;-43
2023/04/13 04:53:57;;;;;;;4.22;0.98;;;11.10;51.90;;;;;;4963539;28;20614;-46
2023/04/13 04:56:28;;;;;;;5.57;1.00;;;11.10;51.90;;;;;;4962560;28;20509;-47
2023/04/13 04:58:58;;;;;;;3.88;0.93;;;11.10;51.90;;;;;;4963694;28;20488;-44
2023/04/13 05:01:26;;;;;;;4.18;0.70;;;11.10;51.90;;;;;;4962563;28;20491;-46
2023/04/13 05:03:53;;;;;;;3.92;0.70;;;11.10;51.90;;;;;;4961391;28;20541;-45
2023/04/13 05:06:21;;;;;;;3.35;0.63;;;11.10;51.90;;;;;;4962604;28;20050;-45
2023/04/13 05:08:53;;;;;;;4.03;0.75;;;11.10;51.90;;;;;;4962985;28;20050;-44
2023/04/13 05:11:20;;;;;;;7.18;0.95;;;11.20;52.00;;;;;;4962923;28;20054;-46
2023/04/13 05:13:50;;;;;;;5.10;0.82;;;11.20;52.00;;;;;;4961391;28;20051;-46
2023/04/13 05:16:17;;;;;;;3.75;0.65;;;11.20;52.00;;;;;;4961553;28;20058;-47
2023/04/13 05:18:45;;;;;;;4.68;1.25;;;11.20;52.10;;;;;;4961854;28;20474;-46
2023/04/13 05:21:13;;;;;;;4.55;1.00;;;11.20;52.10;;;;;;4963358;28;20613;-44
2023/04/13 05:23:43;;;;;;;4.35;0.90;;;11.20;52.10;;;;;;4965667;28;20418;-44
2023/04/13 05:26:12;;;;;;;3.53;0.70;;;11.20;52.10;;;;;;4967448;28;21092;-43
2023/04/13 05:28:41;;;;;;;4.93;0.80;;;11.30;52.10;;;;;;4967152;28;20058;-45
2023/04/13 05:31:09;;;;;;;5.57;0.95;;;11.30;52.60;;;;;;4965830;28;20063;-44
2023/04/13 05:33:37;;;;;;;6.63;1.08;;;11.20;52.10;;;;;;4965989;28;20065;-44
2023/04/13 05:36:07;;;;;;;14.27;4.63;;;11.30;52.10;;;;;;4964894;28;20047;-44
2023/04/13 05:38:34;;;;;;;10.25;5.25;;;11.30;52.10;;;;;;4965719;28;20053;-45
2023/04/13 05:41:02;;;;;;;13.52;5.95;;;11.30;52.10;;;;;;4965639;28;20383;-45
2023/04/13 05:43:30;;;;;;;75.07;35.67;;;11.30;52.10;;;;;;4968125;28;20058;-44
2023/04/13 05:46:02;;;;;;;34.75;17.92;;;11.30;52.10;;;;;;4965128;28;20055;-48
2023/04/13 05:48:36;;;;;;;8.25;3.97;;;11.30;52.20;;;;;;4964354;28;20054;-44
2023/04/13 05:51:03;;;;;;;6.80;2.50;;;11.30;52.60;;;;;;4964888;28;20051;-44
2023/04/13 05:53:33;;;;;;;5.53;1.52;;;11.30;52.10;;;;;;4965532;28;20070;-59
2023/04/13 05:56:02;;;;;;;7.63;1.45;;;11.40;52.20;;;;;;4965339;28;20054;-44
2023/04/13 05:58:30;;;;;;;3.47;1.52;;;11.40;52.10;;;;;;4965596;28;20523;-46
2023/04/13 06:00:57;;;;;;;4.32;1.90;;;11.40;52.10;;;;;;4965778;28;20050;-44
2023/04/13 06:03:26;;;;;;;3.25;1.65;;;11.40;52.20;;;;;;4964109;28;20605;-45
2023/04/13 06:05:53;;;;;;;4.07;1.63;;;11.40;52.10;;;;;;4966350;28;20054;-45
2023/04/13 06:08:21;;;;;;;3.70;1.20;;;11.50;52.20;;;;;;4964656;28;20050;-47
2023/04/13 06:10:51;;;;;;;5.97;1.40;;;11.50;52.10;;;;;;4966774;28;20058;-45
2023/04/13 06:13:19;;;;;;;4.70;1.38;;;11.50;52.00;;;;;;4965627;28;20051;-44
2023/04/13 06:15:48;;;;;;;5.55;1.33;;;11.50;52.00;;;;;;4966194;28;20434;-45
2023/04/13 06:18:15;;;;;;;4.50;0.88;;;11.50;52.00;;;;;;4965710;28;20046;-46
2023/04/13 06:20:42;;;;;;;3.15;0.80;;;11.50;52.00;;;;;;4963845;28;20047;-44
2023/04/13 06:41:07;;;;;;;2.95;0.80;;;11.60;52.10;;;;;;4953977;28;20074;-44
2023/04/13 06:43:35;;;;;;;3.60;1.20;;;11.60;52.20;;;;;;4941323;28;20055;-45
2023/04/13 06:46:04;;;;;;;6.47;2.65;;;11.60;52.30;;;;;;4939808;28;20082;-44
2023/04/13 06:48:31;;;;;;;3.20;1.00;;;11.60;52.50;;;;;;4943898;28;20062;-46
2023/04/13 06:50:59;;;;;;;3.67;0.88;;;11.60;52.50;;;;;;4944122;28;20073;-44
2023/04/13 06:53:26;;;;;;;2.50;0.52;;;11.60;52.60;;;;;;4945028;28;20051;-44
2023/04/13 06:55:53;;;;;;;3.92;0.70;;;11.60;52.60;;;;;;4940714;28;20066;-46
2023/04/13 06:58:22;;;;;;;4.03;0.77;;;11.60;52.70;;;;;;4941663;28;20387;-46
2023/04/13 07:00:49;;;;;;;3.28;0.85;;;11.60;52.80;;;;;;4942574;28;20055;-46
2023/04/13 07:03:17;;;;;;;3.22;0.85;;;11.60;53.00;;;;;;4938862;28;20499;-44
2023/04/13 07:05:45;;;;;;;2.83;0.80;;;11.70;52.90;;;;;;4937485;28;20090;-44
2023/04/13 07:08:12;;;;;;;2.15;0.50;;;11.70;53.00;;;;;;4943547;28;20051;-44
2023/04/13 07:10:40;;;;;;;1.98;0.68;;;11.70;53.00;;;;;;4941686;28;20055;-43
2023/04/13 07:13:07;;;;;;;3.10;0.60;;;11.70;53.00;;;;;;4942303;28;20059;-43
2023/04/13 07:15:37;;;;;;;2.42;0.90;;;11.70;53.10;;;;;;4938044;28;20578;-43
2023/04/13 07:18:04;;;;;;;2.50;0.65;;;11.80;53.10;;;;;;4940428;28;20511;-44
2023/04/13 07:20:33;;;;;;;2.33;0.60;;;11.80;53.00;;;;;;4941048;28;20491;-46
2023/04/13 07:23:01;;;;;;;2.30;0.60;;;11.80;52.90;;;;;;4941252;28;20396;-45
2023/04/13 07:25:28;;;;;;;1.92;0.65;;;11.80;52.80;;;;;;4940223;28;20058;-44
2023/04/13 07:27:57;;;;;;;1.85;0.50;;;11.90;52.80;;;;;;4941379;28;20062;-43
2023/04/13 07:30:24;;;;;;;2.17;0.98;;;11.90;52.70;;;;;;4940917;28;20055;-44
2023/04/13 07:32:53;;;;;;;5.60;0.75;;;11.90;52.70;;;;;;4942920;28;20070;-44
2023/04/13 07:35:20;;;;;;;1.48;0.60;;;11.90;52.60;;;;;;4940968;28;20062;-44
2023/04/13 07:37:48;;;;;;;3.78;0.60;;;11.90;52.60;;;;;;4940230;28;20066;-43
2023/04/13 07:40:16;;;;;;;5.78;2.88;;;11.90;52.60;;;;;;4941169;28;20047;-46
2023/04/13 07:42:44;;;;;;;1.92;1.00;;;11.90;52.60;;;;;;4958733;28;20062;-46
2023/04/13 07:45:11;;;;;;;2.10;0.60;;;11.90;52.50;;;;;;4963864;28;20054;-46
2023/04/13 07:47:38;;;;;;;2.45;0.55;;;11.90;52.50;;;;;;4964401;28;20415;-48
2023/04/13 07:50:08;;;;;;;2.65;0.40;;;11.90;52.50;;;;;;4962731;28;20411;-44
2023/04/13 07:52:35;;;;;;;2.13;0.60;;;11.90;52.50;;;;;;4963799;28;20059;-43
2023/04/13 07:55:03;;;;;;;3.13;0.70;;;11.90;52.50;;;;;;4963129;28;20058;-48
2023/04/13 07:57:33;;;;;;;2.13;0.55;;;12.00;52.50;;;;;;4963852;28;20055;-44
2023/04/13 08:00:00;;;;;;;0.90;0.50;;;12.00;52.60;;;;;;4964362;28;20512;-43
2023/04/13 08:02:28;;;;;;;2.08;0.38;;;12.00;52.60;;;;;;4964499;28;20367;-44
2023/04/13 08:04:56;;;;;;;2.28;0.47;;;12.00;52.50;;;;;;4963223;28;20046;-44
2023/04/13 08:07:25;;;;;;;1.52;0.40;;;12.10;52.40;;;;;;4962844;28;20051;-45
2023/04/13 08:09:54;;;;;;;1.25;0.40;;;12.10;52.30;;;;;;4965338;28;20119;-47
2023/04/13 08:12:21;;;;;;;1.88;0.50;;;12.10;52.20;;;;;;4963877;28;20058;-43
2023/04/13 08:14:49;;;;;;;1.15;0.35;;;12.10;52.10;;;;;;4963410;28;20054;-44
2023/04/13 08:17:16;;;;;;;1.75;0.80;;;12.20;51.90;;;;;;4964584;28;20051;-44
2023/04/13 08:19:44;;;;;;;2.63;1.15;;;12.20;52.00;;;;;;4961450;28;20051;-45
2023/04/13 08:22:12;;;;;;;4.47;2.22;;;12.20;52.10;;;;;;4962213;28;20054;-44
2023/04/13 08:24:41;;;;;;;1.23;0.95;;;12.20;52.20;;;;;;4962477;28;20058;-48
2023/04/13 08:27:08;;;;;;;2.70;0.60;;;12.20;52.30;;;;;;4962609;28;20054;-44
2023/04/13 08:29:36;;;;;;;1.10;0.60;;;12.30;52.20;;;;;;4961306;28;20057;-43
2023/04/13 08:32:03;;;;;;;2.88;0.60;;;12.30;52.10;;;;;;4964121;28;20401;-44
2023/04/13 08:34:30;;;;;;;2.97;0.52;;;12.30;52.00;;;;;;4963139;28;20065;-45
2023/04/13 08:36:58;;;;;;;6.30;0.93;;;12.40;51.90;;;;;;4962919;28;20058;-44
2023/04/13 08:39:26;;;;;;;7.28;2.25;;;12.40;51.90;;;;;;4962973;28;20419;-46
2023/04/13 08:41:55;;;;;;;2.00;0.80;;;12.40;51.90;;;;;;4962316;28;20058;-47
2023/04/13 08:44:23;;;;;;;1.50;0.60;;;12.50;51.90;;;;;;4963188;28;20419;-46
2023/04/13 08:46:52;;;;;;;2.75;0.80;;;12.50;51.80;;;;;;4965230;28;20069;-45
2023/04/13 08:49:19;;;;;;;1.05;0.32;;;12.50;51.80;;;;;;4961091;28;20499;-47
2023/04/13 08:51:48;;;;;;;2.78;0.77;;;12.60;51.80;;;;;;4963104;28;20058;-44
2023/04/13 08:54:16;;;;;;;4.25;1.02;;;12.60;51.70;;;;;;4962207;28;20050;-44
2023/04/13 08:56:47;;;;;;;1.63;0.57;;;12.60;51.50;;;;;;4962834;28;20093;-45
2023/04/13 08:59:17;;;;;;;2.33;0.60;;;12.70;51.30;;;;;;4963948;28;20786;-44
2023/04/13 09:01:46;;;;;;;3.42;0.98;;;12.70;51.20;;;;;;4961737;28;20070;-44
2023/04/13 09:04:17;;;;;;;2.22;0.75;;;12.70;51.00;;;;;;4962434;28;20062;-44
2023/04/13 09:06:49;;;;;;;1.90;0.52;;;12.70;50.80;;;;;;4964807;28;20059;-44
2023/04/13 09:09:17;;;;;;;5.90;0.75;;;12.70;50.80;;;;;;4962650;28;20050;-44
2023/04/13 09:11:45;;;;;;;4.13;0.65;;;12.70;50.60;;;;;;4965223;28;20055;-44
2023/04/13 09:14:13;;;;;;;4.18;0.75;;;12.70;50.80;;;;;;4961980;28;20483;-43
2023/04/13 09:16:43;;;;;;;7.07;1.73;;;12.70;50.60;;;;;;4964287;28;20059;-45
2023/04/13 09:19:12;;;;;;;1.92;0.70;;;12.70;51.00;;;;;;4961915;28;20487;-45
2023/04/13 09:21:41;;;;;;;4.35;0.70;;;12.80;51.10;;;;;;4963290;28;20054;-45
2023/04/13 09:24:09;;;;;;;3.55;0.88;;;12.90;50.90;;;;;;4962579;28;20066;-47
2023/04/13 09:26:40;;;;;;;3.42;1.00;;;12.90;50.70;;;;;;4963312;28;20070;-44
2023/04/13 09:29:11;;;;;;;2.53;1.00;;;12.90;50.40;;;;;;4961643;28;20050;-45
2023/04/13 09:31:39;;;;;;;4.00;0.80;;;13.00;50.50;;;;;;4962259;28;20050;-47
2023/04/13 09:34:08;;;;;;;4.90;1.27;;;13.10;50.50;;;;;;4959933;28;20054;-47
2023/04/13 09:36:36;;;;;;;4.70;1.40;;;13.10;50.20;;;;;;4962402;28;20054;-45
2023/04/13 09:39:04;;;;;;;3.63;1.17;;;13.20;50.20;;;;;;4961521;28;20065;-45
2023/04/13 09:41:33;;;;;;;2.55;1.00;;;13.30;50.10;;;;;;4963240;28;20434;-43
2023/04/13 09:44:14;;;;;;;5.38;1.17;;;13.30;50.00;;;;;;4962394;28;20055;-45
2023/04/13 09:46:42;;;;;;;5.70;0.90;;;13.40;50.00;;;;;;4961642;28;20058;-44
2023/04/13 09:49:10;;;;;;;4.10;0.80;;;13.40;49.80;;;;;;4962040;28;20054;-44
2023/04/13 09:51:38;;;;;;;5.18;0.80;;;13.50;49.60;;;;;;4962181;28;20050;-44
2023/04/13 09:54:07;;;;;;;3.28;0.80;;;13.50;49.70;;;;;;4962643;28;20058;-46
2023/04/13 09:56:45;;;;;;;7.20;1.10;;;13.50;49.90;;;;;;4962127;28;20054;-44
2023/04/13 09:59:13;;;;;;;4.45;1.10;;;13.60;50.30;;;;;;4963003;28;20055;-44
2023/04/13 10:01:41;;;;;;;7.28;1.10;;;13.50;50.60;;;;;;4963160;28;20081;-46
2023/04/13 10:04:11;;;;;;;6.55;1.55;;;13.50;50.90;;;;;;4959910;28;20403;-45
2023/04/13 10:06:40;;;;;;;2.72;0.90;;;13.50;51.10;;;;;;4962075;28;20047;-43
2023/04/13 10:09:08;;;;;;;3.65;0.90;;;13.50;51.40;;;;;;4963359;28;20055;-44
2023/04/13 10:11:41;;;;;;;4.97;0.80;;;13.50;51.60;;;;;;4966678;28;20058;-45
2023/04/13 10:14:14;;;;;;;2.13;0.87;;;13.50;51.90;;;;;;4964338;28;20411;-44
2023/04/13 10:17:10;;;;;;;4.57;1.65;;;13.50;52.10;;;;;;4965268;28;20526;-44
2023/04/13 10:19:43;;;;;;;5.93;1.42;;;13.50;52.30;;;;;;4962646;28;20509;-44
2023/04/13 10:22:11;;;;;;;2.67;1.17;;;13.60;52.30;;;;;;4965508;28;20058;-43
2023/04/13 10:24:42;;;;;;;5.68;1.63;;;13.60;52.40;;;;;;4964695;28;20462;-44
2023/04/13 10:27:15;;;;;;;5.38;2.70;;;13.60;52.30;;;;;;4965946;28;20066;-47
2023/04/13 10:29:42;;;;;;;7.93;1.80;;;13.60;52.40;;;;;;4965960;28;20055;-45
2023/04/13 10:32:20;;;;;;;2.63;1.27;;;13.60;52.30;;;;;;4967279;28;20058;-43
2023/04/13 10:34:49;;;;;;;4.22;1.10;;;13.60;52.30;;;;;;4965030;28;20055;-44
2023/04/13 10:37:21;;;;;;;4.63;1.63;;;13.70;52.30;;;;;;4962505;28;20057;-45
2023/04/13 10:40:00;;;;;;;4.35;1.80;;;13.70;52.20;;;;;;4965909;28;20419;-45
2023/04/13 10:42:27;;;;;;;8.77;2.90;;;13.80;52.20;;;;;;4964095;28;20058;-43
2023/04/13 10:44:55;;;;;;;10.93;1.90;;;13.80;52.40;;;;;;4964985;28;20051;-45
2023/04/13 10:47:22;;;;;;;4.43;1.92;;;13.80;52.20;;;;;;4962437;28;20487;-44
2023/04/13 10:49:51;;;;;;;8.13;2.42;;;13.90;51.90;;;;;;4965383;28;20051;-45
2023/04/13 10:52:19;;;;;;;5.30;1.50;;;13.90;51.80;;;;;;4965603;28;20058;-46
2023/04/13 10:54:46;;;;;;;6.78;1.70;;;13.90;51.90;;;;;;4964887;28;20055;-44
2023/04/13 10:57:16;;;;;;;5.07;1.35;;;14.00;51.70;;;;;;4964604;28;20062;-46
2023/04/13 10:59:48;;;;;;;8.30;1.33;;;14.00;51.60;;;;;;4964293;28;20065;-47
2023/04/13 11:02:17;;;;;;;2.42;1.00;;;14.00;51.50;;;;;;4962234;28;20449;-46
2023/04/13 11:04:46;;;;;;;7.28;1.45;;;14.10;51.30;;;;;;4962252;28;20414;-45
2023/04/13 11:07:18;;;;;;;6.82;1.15;;;14.20;51.20;;;;;;4963502;28;20050;-45
2023/04/13 11:09:49;;;;;;;8.15;1.45;;;14.20;50.60;;;;;;4965872;28;20051;-47
2023/04/13 11:12:16;;;;;;;6.03;1.60;;;14.20;50.20;;;;;;4964541;28;20050;-46
2023/04/13 11:14:45;;;;;;;7.38;1.70;;;14.30;49.80;;;;;;4964335;28;20082;-44
2023/04/13 11:17:15;;;;;;;7.63;1.45;;;14.30;49.90;;;;;;4964909;28;20054;-44
2023/04/13 11:19:49;;;;;;;5.63;1.58;;;14.30;49.70;;;;;;4962842;28;20070;-46
2023/04/13 11:22:18;;;;;;;;;;;14.40;49.50;;;;;;4965197;28;20050;-45
2023/04/13 11:24:47;;;;;;;5.32;1.45;;;14.40;49.60;;;;;;4961993;28;19922;-49
2023/04/13 11:27:18;;;;;;;6.43;1.52;;;14.50;49.10;;;;;;4966957;28;20058;-44
2023/04/13 11:29:45;;;;;;;7.32;1.60;;;14.50;48.50;;;;;;4964058;28;20055;-47
2023/04/13 11:32:19;;;;;;;8.45;1.73;;;14.50;48.60;;;;;;4964111;28;20092;-51
2023/04/13 11:34:48;;;;;;;5.60;1.70;;;14.50;48.50;;;;;;4963478;28;20078;-45
2023/04/13 11:37:16;;;;;;;7.38;1.48;;;14.60;48.60;;;;;;4964011;28;20541;-46
2023/04/13 11:39:45;;;;;;;11.07;2.45;;;14.60;48.30;;;;;;4965816;28;20062;-45
2023/04/13 11:42:15;;;;;;;10.80;1.77;;;14.60;48.20;;;;;;4964236;28;20435;-45
2023/04/13 11:44:45;;;;;;;9.05;1.73;;;14.60;47.90;;;;;;4964282;28;20063;-44
2023/04/13 11:47:17;;;;;;;7.72;1.48;;;14.60;47.50;;;;;;4963854;28;20058;-46
2023/04/13 11:49:46;;;;;;;8.18;1.58;;;14.60;47.00;;;;;;4963128;28;20054;-45
2023/04/13 11:52:14;;;;;;;8.77;1.55;;;14.60;47.60;;;;;;4963558;28;20058;-43
2023/04/13 11:54:43;;;;;;;12.80;2.15;;;14.60;48.00;;;;;;4963520;28;20061;-44
2023/04/13 11:57:12;;;;;;;5.97;1.55;;;14.60;47.20;;;;;;4965709;28;20058;-45
2023/04/13 11:59:40;;;;;;;8.05;1.88;;;14.50;47.90;;;;;;4964421;28;20061;-46
2023/04/13 12:02:08;;;;;;;6.68;1.50;;;14.50;48.20;;;;;;4963958;28;20057;-46
2023/04/13 12:04:39;;;;;;;4.93;1.40;;;14.50;47.80;;;;;;4963653;28;20078;-44
2023/04/13 12:07:12;;;;;;;14.25;2.25;;;14.60;48.00;;;;;;4963557;28;20054;-44
2023/04/13 12:09:45;;;;;;;10.50;2.47;;;14.50;47.50;;;;;;4963003;28;20062;-46
2023/04/13 12:12:18;;;;;;;11.70;1.83;;;14.60;47.30;;;;;;4963130;28;20054;-44
2023/04/13 12:14:53;;;;;;;6.15;1.88;;;14.60;46.20;;;;;;4965288;28;21051;-47
2023/04/13 12:17:21;;;;;;;7.05;1.88;;;14.60;46.50;;;;;;4964410;28;20494;-44
2023/04/13 12:19:54;;;;;;;12.23;2.80;;;14.60;46.60;;;;;;4963440;28;20059;-45
2023/04/13 12:22:22;;;;;;;5.53;1.67;;;14.60;46.00;;;;;;4964804;28;20529;-47
2023/04/13 12:24:49;;;;;;;10.93;1.63;;;14.70;45.90;;;;;;4963056;28;20055;-44
2023/04/13 12:27:18;;;;;;;10.20;1.90;;;14.70;45.70;;;;;;4962827;28;20057;-44
2023/04/13 12:29:46;;;;;;;11.02;2.15;;;14.70;44.40;;;;;;4963366;28;20058;-44
2023/04/13 12:32:14;;;;;;;9.77;2.00;;;14.70;45.40;;;;;;4963991;28;20085;-43
2023/04/13 12:34:41;;;;;;;5.60;1.45;;;14.70;45.20;;;;;;4963126;28;20134;-44
2023/04/13 12:37:09;;;;;;;8.45;1.90;;;14.70;45.20;;;;;;4962761;28;20061;-43
2023/04/13 12:39:37;;;;;;;9.80;1.80;;;14.80;46.00;;;;;;4963862;28;20059;-43
2023/04/13 12:42:04;;;;;;;8.75;1.85;;;14.80;45.10;;;;;;4963125;28;20131;-44
2023/04/13 12:44:33;;;;;;;6.53;1.48;;;14.90;45.20;;;;;;4962928;28;20061;-44
2023/04/13 12:47:00;;;;;;;8.48;1.67;;;14.90;44.90;;;;;;4964107;28;20055;-44
2023/04/13 12:49:27;;;;;;;6.70;1.80;;;15.00;44.60;;;;;;4963182;28;20463;-44
2023/04/13 12:51:54;;;;;;;7.88;2.22;;;15.00;44.40;;;;;;4963648;28;20054;-47
2023/04/13 12:54:22;;;;;;;7.85;1.80;;;15.10;43.90;;;;;;4962710;28;20391;-43
2023/04/13 12:56:49;;;;;;;6.53;1.83;;;15.10;43.70;;;;;;4963551;28;20054;-44
2023/04/13 12:59:16;;;;;;;5.75;1.60;;;15.20;44.10;;;;;;4963353;28;20069;-44
2023/04/13 13:01:45;;;;;;;7.15;2.20;;;15.20;43.90;;;;;;4962554;28;20055;-43
2023/04/13 13:04:12;;;;;;;9.45;1.88;;;15.20;43.80;;;;;;4963701;28;20158;-47
2023/04/13 13:06:40;;;;;;;9.52;2.08;;;15.30;43.20;;;;;;4963537;28;20051;-46
2023/04/13 13:09:08;;;;;;;13.13;1.88;;;15.30;41.70;;;;;;4964819;28;20520;-45
2023/04/13 13:11:35;;;;;;;15.07;2.58;;;15.30;42.50;;;;;;4964837;28;20157;-43
2023/04/13 13:14:06;;;;;;;10.27;2.08;;;15.40;42.20;;;;;;4963458;28;20058;-43
2023/04/13 13:16:34;;;;;;;7.43;2.00;;;15.40;42.10;;;;;;4964491;28;20100;-44
2023/04/13 13:19:03;;;;;;;9.18;2.15;;;15.40;41.90;;;;;;4961319;28;20055;-50